AirNav   Everest Fuels
 
 547 users online  

CL00 USC University Hospital Heliport
Los Angeles, California, USA

GOING TO LOS ANGELES?


FAA INFORMATION EFFECTIVE 10 SEPTEMBER 2020

Location

FAA Identifier: CL00
Lat/Long: 34-03-41.8000N 118-12-05.7100W
34-03.696667N 118-12.095167W
34.0616111,-118.2015861
(estimated)
Elevation: 476 ft. / 145 m (estimated)
Variation: 14E (1990)
Time zone: UTC -7 (UTC -8 during Standard Time)
Zip code: 90033

Heliport Operations

Heliport use: Private use. Permission required prior to landing
Activation date: 09/1992
Control tower: no
ARTCC: LOS ANGELES CENTER
FSS: HAWTHORNE FLIGHT SERVICE STATION
Attendance: CONTINUOUS
Segmented circle: no
Lights: FOR PERIMETER LGTS CALL 213-221-4118.
Beacon: white-green-yellow (heliport)
FOR ROTG BCN CALL 213-221-4118.

Heliport Communications

WX AWOS-3PT at EMT (8 nm E): 118.75 ((626) 444-1107)
WX AWOS-3PT at CPM (11 nm S): 127.150 (310-631-4958)
WX ASOS at HHR (11 nm SW): PHONE 310-973-8930
WX ASOS at BUR (11 nm NW): PHONE 818-841-1384
WX ASOS at LAX (13 nm SW): PHONE 310-568-1486
WX ASOS at SMO (13 nm W): PHONE 310-392-6453
WX ASOS at LGB (15 nm S): PHONE 562-424-0572
WX ASOS at FUL (16 nm SE): PHONE 714-870-1372
WX AWOS-3PT at WHP (16 nm NW): 132.1 (818-899-9820)
WX ASOS at VNY (17 nm NW): PHONE 818-904-9213

Nearby radio navigation aids

VOR radial/distance  VOR name  Freq  Var
SMOr061/13.1SANTA MONICA VOR/DME110.8015E
LAXr041/13.8LOS ANGELES VORTAC113.6015E
VNYr109/17.4VAN NUYS VOR/DME113.1015E
SLIr321/18.2SEAL BEACH VORTAC115.7015E
POMr252/20.6POMONA VORTAC110.4015E
ELBr301/32.9EL TORO VOR/DME117.2014E
PDZr269/34.5PARADISE VORTAC112.2015E
PMDr176/34.9PALMDALE VORTAC114.5015E
RALr266/(37.9)RIVERSIDE VOR112.4014E
FIMr103/38.1FILLMORE VORTAC112.5015E

Heliport Services

Runway Information

Helipad H1

Dimensions: 55 x 55 ft. / 17 x 17 m
Surface: asphalt
ROOFTOP.
Runway edge lights: PERI
Latitude: 34-03.696667N
Longitude: 118-12.095167W
Elevation: 476.0 ft.
Traffic pattern: leftleft

Heliport Ownership and Management from official FAA records

Ownership: Privately-owned
Owner: NATL MEDICAL ENTERPRISES INC.
2700 COLORADO AVENUE
SANTA MONICA, CA 90404
Phone 310-315-8000
Manager: PAUL MCGRAW
1500 SAN PABLO STREET
LOS ANGELES, CA 90033
Phone 213-221-4118

Additional Remarks

A52-H1 12 FT BLDG 60 FT NORTH & 22 FT BLDG 76 FT NORTH OF HELIPORT.
FOR CD CTC LOS ANGELES ARTCC AT 661-575-2079.

Instrument Procedures

There are no published instrument procedures at CL00.

Some nearby airports with instrument procedures:

KEMT - San Gabriel Valley Airport (8 nm E)
KHHR - Jack Northrop Field/Hawthorne Municipal Airport (11 nm SW)
KBUR - Bob Hope Airport (11 nm NW)
KLAX - Los Angeles International Airport (13 nm SW)
KSMO - Santa Monica Municipal Airport (13 nm W)
KLGB - Long Beach Airport (Daugherty Field) (15 nm S)
KFUL - Fullerton Municipal Airport (16 nm SE)
KWHP - Whiteman Airport (16 nm NW)
KVNY - Van Nuys Airport (17 nm NW)
KTOA - Zamperini Field Airport (17 nm SW)
 
Loc | Ops | Rwys | IFR | FBO | Links
Com | Nav | Svcs | Stats | Notes

San Bernardino International Airport Authority
 
Area around CL00 (USC University Hospital Heliport)
 
Road maps at: MapQuest Bing Google
 
Aerial photo
No photo
 
Sectional chart

 
Airport distance calculator
Flying to USC University Hospital Heliport? Find the distance to fly.

From to CL00

Sunrise and sunset
Times for 21-Sep-2020
 Local
(UTC-7)
 Zulu
(UTC)
Morning civil twilight06:1713:17
Sunrise06:4213:42
Sunset18:4901:49
Evening civil twilight19:1402:14

Current date and time
Zulu (UTC)  22-Sep-2020 05:38:13
Local (UTC-7)  21-Sep-2020 22:38:13
 
METAR
KCQT 
2nm SW 
220512Z AUTO 00000KT 7SM BKN008 19/16 A2995 RMK AO2 T01890156
KEMT 
9nm E 
220150Z 21005KT 10SM CLR 24/16 A2990
KHHR 
11nm SW 
220453Z VRB04KT 10SM FU OVC011 19/16 A2995 RMK AO2 SLP142 T01890156
KBUR 
12nm NW 
220453Z 10006KT 10SM CLR 21/15 A2995 RMK AO2 SLP129 T02060150 $
KLAX 
12nm SW 
220453Z 27009KT 10SM BKN009 18/16 A2995 RMK AO2 SLP141 T01830156
KLGB 
15nm S 
220453Z AUTO 32003KT 10SM CLR 19/16 A2995 RMK AO2 SLP142 T01940161
KWHP 
16nm NW 
220155Z 11004KT 10SM SKC 25/10 A2994
KFUL 
16nm SE 
220453Z AUTO 00000KT 9SM CLR 21/16 A2995 RMK AO2 SLP139 T02060156
KVNY 
17nm NW 
220451Z 12003KT 10SM CLR 22/14 A2995 RMK AO2 SLP132 T02220144
KTOA 
18nm S 
220047Z 27015KT 10SM SKC 21/17 A2990 RMK LAST
TAF
KBUR 
12nm NW 
211739Z 2118/2218 03003KT 5SM HZ SKC FM211900 18010KT P6SM SKC FM220200 18005KT P6SM SKC FM220500 12006KT P6SM SKC FM221000 VRB03KT 6SM BR OVC007
KLAX 
12nm SW 
220255Z 2203/2306 27010KT P6SM FEW008 FM220400 26006KT 6SM BR BKN008 FM220800 VRB03KT P6SM OVC010 FM221500 VRB03KT P6SM OVC015 FM221900 26012KT P6SM FEW018 FM230400 26006KT P6SM SKC
KSMO 
13nm W 
211739Z 2118/2218 VRB03KT 6SM BR SCT016 FM212000 23008KT P6SM SCT016 FM220400 VRB03KT P6SM OVC008 FM221000 VRB03KT P6SM OVC010 AMD NOT SKED
KLGB 
15nm S 
211739Z 2118/2218 10004KT 6SM HZ BKN015 FM211830 19007KT P6SM SCT017 FM220000 30006KT P6SM SKC FM220400 VRB03KT P6SM SKC FM220700 VRB03KT P6SM OVC010
KVNY 
17nm NW 
211739Z 2118/2218 20003KT 4SM HZ SCT009 FM212000 15008KT P6SM SKC FM220400 11006KT P6SM SKC FM221000 VRB03KT 6SM BR OVC006
KSLI 
20nm SE 
210318Z 2021/2203 23006KT 9999 SKC QNH2983INS BECMG 2103/2104 22004KT 9999 FEW150 QNH2988INS BECMG 2111/2112 VRB06KT 0800 FG VV004 QNH2990INS BECMG 2118/2119 VRB06KT 3200 BR OVC015 QNH2998INS BECMG 2121/2122 25004KT 8000 HZ SCT020 QNH2993INS BECMG 2200/2201 25006KT 9999 NSW SKC QNH2987INS TX26/2100Z TN17/2112Z LAST NO AMDS AFT 2103 NEXT 2113
NOTAMs
Click for the latest NOTAMs
NOTAMs are issued by the DoD/FAA and will open in a separate window not controlled by AirNav.

 

 
 

Would you like to see your business listed on this page?

 If your business provides an interesting product or service to pilots, flight crews, aircraft, or users of the USC University Hospital Heliport, you should consider listing it here.  To start the listing process, click on the button below
 
Add a business
 

Other Pages about USC University Hospital Heliport

Update a link
 
Copyright © AirNav, LLC. All rights reserved. Privacy Policy  Contact